createdAt,value
2022-10-07T00:01:38.469Z,8.00
2022-10-07T00:04:05.254Z,8.00
2022-10-07T00:06:32.153Z,7.90
2022-10-07T00:08:59.802Z,7.90
2022-10-07T00:11:27.750Z,7.80
2022-10-07T00:13:56.365Z,7.70
2022-10-07T00:16:33.420Z,7.70
2022-10-07T00:19:02.293Z,7.70
2022-10-07T00:21:30.760Z,7.70
2022-10-07T00:23:59.091Z,7.70
2022-10-07T00:26:27.979Z,7.70
2022-10-07T00:28:55.307Z,7.70
2022-10-07T00:31:23.733Z,7.70
2022-10-07T00:33:51.439Z,7.70
2022-10-07T00:36:20.824Z,7.70
2022-10-07T00:38:51.504Z,7.70
2022-10-07T00:41:19.997Z,7.80
2022-10-07T00:43:47.205Z,7.80
2022-10-07T00:46:29.444Z,7.80
2022-10-07T00:48:57.997Z,7.80
2022-10-07T00:51:25.538Z,7.70
2022-10-07T00:53:53.387Z,7.70
2022-10-07T00:56:20.052Z,7.70
2022-10-07T00:58:48.312Z,7.70
2022-10-07T01:01:15.361Z,7.70
2022-10-07T01:03:42.879Z,7.70
2022-10-07T01:06:10.423Z,7.70
2022-10-07T01:08:39.400Z,7.70
2022-10-07T01:11:21.549Z,7.70
2022-10-07T01:13:56.136Z,7.80
2022-10-07T01:16:29.542Z,7.80
2022-10-07T01:19:15.265Z,7.80
2022-10-07T01:21:58.193Z,7.80
2022-10-07T01:24:33.254Z,7.80
2022-10-07T01:27:01.941Z,7.80
2022-10-07T01:29:55.883Z,7.70
2022-10-07T01:32:22.734Z,7.70
2022-10-07T01:34:49.815Z,7.60
2022-10-07T01:37:17.481Z,7.60
2022-10-07T01:39:46.781Z,7.70
2022-10-07T01:42:13.981Z,7.60
2022-10-07T01:44:41.103Z,7.70
2022-10-07T01:47:08.096Z,7.70
2022-10-07T01:49:34.868Z,7.70
2022-10-07T01:52:18.250Z,7.60
2022-10-07T01:54:56.921Z,7.60
2022-10-07T01:57:29.726Z,7.60
2022-10-07T02:00:06.656Z,7.60
2022-10-07T02:03:03.376Z,7.60
2022-10-07T02:05:56.497Z,7.60
2022-10-07T02:08:23.409Z,7.50
2022-10-07T02:10:53.348Z,7.50
2022-10-07T02:13:31.794Z,7.50
2022-10-07T02:16:10.128Z,7.50
2022-10-07T02:18:37.868Z,7.40
2022-10-07T02:21:05.520Z,7.40
2022-10-07T02:23:34.446Z,7.30
2022-10-07T02:26:02.862Z,7.30
2022-10-07T02:28:30.720Z,7.20
2022-10-07T02:31:00.260Z,7.30
2022-10-07T02:33:29.290Z,7.20
2022-10-07T02:35:59.322Z,7.20
2022-10-07T02:38:26.798Z,7.20
2022-10-07T02:41:07.472Z,7.10
2022-10-07T02:43:46.209Z,7.10
2022-10-07T02:46:15.279Z,7.00
2022-10-07T02:48:47.428Z,7.00
2022-10-07T02:51:20.942Z,7.00
2022-10-07T02:53:51.754Z,6.90
2022-10-07T02:56:20.344Z,6.90
2022-10-07T02:58:47.474Z,6.80
2022-10-07T03:01:17.971Z,6.80
2022-10-07T03:03:45.962Z,6.80
2022-10-07T03:06:13.579Z,6.70
2022-10-07T03:08:40.957Z,6.70
2022-10-07T03:11:08.027Z,6.70
2022-10-07T03:13:35.235Z,6.70
2022-10-07T03:16:05.655Z,6.60
2022-10-07T03:18:32.956Z,6.50
2022-10-07T03:21:24.140Z,6.50
2022-10-07T03:23:54.002Z,6.50
2022-10-07T03:26:23.984Z,6.40
2022-10-07T03:28:51.694Z,6.40
2022-10-07T03:31:19.629Z,6.40
2022-10-07T03:33:49.514Z,6.40
2022-10-07T03:36:17.731Z,6.40
2022-10-07T03:38:46.814Z,6.40
2022-10-07T03:41:14.386Z,6.40
2022-10-07T03:43:41.142Z,6.40
2022-10-07T03:46:09.773Z,6.40
2022-10-07T03:48:38.488Z,6.50
2022-10-07T03:51:05.278Z,6.40
2022-10-07T03:53:34.425Z,6.40
2022-10-07T03:56:01.990Z,6.40
2022-10-07T03:58:30.565Z,6.30
2022-10-07T04:01:04.640Z,6.30
2022-10-07T04:03:31.958Z,6.30
2022-10-07T04:05:59.683Z,6.30
2022-10-07T04:08:29.221Z,6.30
2022-10-07T04:10:57.299Z,6.30
2022-10-07T04:13:24.446Z,6.30
2022-10-07T04:15:52.615Z,6.30
2022-10-07T04:18:21.102Z,6.30
2022-10-07T04:20:48.220Z,6.20
2022-10-07T04:23:16.565Z,6.30
2022-10-07T04:25:44.246Z,6.20
2022-10-07T04:28:16.050Z,6.20
2022-10-07T04:30:44.729Z,6.20
2022-10-07T04:33:13.897Z,6.10
2022-10-07T04:35:41.331Z,6.00
2022-10-07T04:38:10.140Z,6.10
2022-10-07T04:40:40.921Z,6.00
2022-10-07T04:43:22.880Z,6.10
2022-10-07T04:46:04.478Z,6.10
2022-10-07T04:48:31.502Z,6.00
2022-10-07T04:51:05.334Z,5.80
2022-10-07T04:53:32.344Z,5.70
2022-10-07T04:56:00.357Z,5.50
2022-10-07T04:58:28.071Z,5.40
2022-10-07T05:00:55.863Z,5.30
2022-10-07T05:03:25.471Z,5.30
2022-10-07T05:05:53.492Z,5.30
2022-10-07T05:08:21.144Z,5.30
2022-10-07T05:10:47.998Z,5.30
2022-10-07T05:13:16.847Z,5.40
2022-10-07T05:15:49.887Z,5.50
2022-10-07T05:18:19.351Z,5.50
2022-10-07T05:20:48.770Z,5.60
2022-10-07T05:23:17.505Z,5.60
2022-10-07T05:25:45.483Z,5.70
2022-10-07T05:28:13.463Z,5.70
2022-10-07T05:30:41.836Z,5.70
2022-10-07T05:33:10.199Z,5.70
2022-10-07T05:35:39.164Z,5.80
2022-10-07T05:38:06.982Z,5.80
2022-10-07T05:40:33.726Z,5.90
2022-10-07T05:43:00.492Z,5.90
2022-10-07T05:45:27.226Z,5.90
2022-10-07T05:47:53.953Z,5.90
2022-10-07T05:50:20.606Z,6.00
2022-10-07T05:52:48.680Z,6.00
2022-10-07T05:55:16.727Z,6.00
2022-10-07T05:57:44.109Z,6.10
2022-10-07T06:00:12.751Z,6.40
2022-10-07T06:02:47.241Z,7.00
2022-10-07T06:05:14.587Z,7.70
2022-10-07T06:07:41.545Z,8.30
2022-10-07T06:10:27.042Z,8.90
2022-10-07T06:13:09.187Z,9.30
2022-10-07T06:15:38.392Z,9.90
2022-10-07T06:18:06.623Z,10.40
2022-10-07T06:20:33.943Z,11.00
2022-10-07T06:23:00.731Z,11.50
2022-10-07T06:25:28.243Z,12.10
2022-10-07T06:27:56.563Z,12.60
2022-10-07T06:30:25.832Z,13.20
2022-10-07T06:32:53.630Z,13.70
2022-10-07T06:35:21.413Z,14.10
2022-10-07T06:37:50.155Z,14.50
2022-10-07T06:40:16.848Z,14.80
2022-10-07T06:42:43.600Z,15.10
2022-10-07T06:45:33.336Z,15.60
2022-10-07T06:48:01.126Z,16.20
2022-10-07T06:50:29.216Z,16.70
2022-10-07T06:52:56.666Z,17.00
2022-10-07T06:55:23.940Z,17.20
2022-10-07T06:57:50.679Z,17.40
2022-10-07T07:00:19.535Z,17.60
2022-10-07T07:02:46.822Z,17.80
2022-10-07T07:05:15.096Z,18.10
2022-10-07T07:07:44.092Z,18.30
2022-10-07T07:10:11.867Z,18.60
2022-10-07T07:12:42.413Z,19.10
2022-10-07T07:15:10.263Z,19.60
2022-10-07T07:17:38.709Z,19.90
2022-10-07T07:20:05.949Z,20.00
2022-10-07T07:22:32.699Z,20.30
2022-10-07T07:24:59.614Z,20.60
2022-10-07T07:27:26.271Z,20.90
2022-10-07T07:29:53.170Z,21.20
2022-10-07T07:32:20.585Z,21.60
2022-10-07T07:34:47.792Z,21.90
2022-10-07T07:37:20.369Z,22.10
2022-10-07T07:39:51.149Z,22.50
2022-10-07T07:42:18.975Z,22.80
2022-10-07T07:44:46.673Z,23.10
2022-10-07T07:47:17.030Z,23.40
2022-10-07T07:49:44.817Z,23.90
2022-10-07T07:52:16.404Z,24.30
2022-10-07T07:54:47.563Z,24.80
2022-10-07T07:57:14.537Z,25.00
2022-10-07T07:59:41.727Z,25.20
2022-10-07T08:02:10.329Z,25.40
2022-10-07T08:04:38.562Z,25.60
2022-10-07T08:07:06.204Z,25.70
2022-10-07T08:09:33.463Z,25.90
2022-10-07T08:12:00.652Z,26.20
2022-10-07T08:14:27.660Z,26.60
2022-10-07T08:16:57.392Z,26.90
2022-10-07T08:19:24.046Z,27.40
2022-10-07T08:21:52.307Z,27.90
2022-10-07T08:24:25.778Z,27.90
2022-10-07T08:26:56.306Z,28.00
2022-10-07T08:29:23.944Z,28.30
2022-10-07T08:31:51.141Z,28.70
2022-10-07T08:34:17.862Z,28.90
2022-10-07T08:36:47.405Z,29.00
2022-10-07T08:39:14.880Z,29.30
2022-10-07T08:42:00.474Z,29.80
2022-10-07T08:44:27.170Z,29.80
2022-10-07T08:47:26.541Z,30.10
2022-10-07T08:50:06.229Z,30.40
2022-10-07T08:52:39.207Z,30.30
2022-10-07T08:55:15.218Z,30.50
2022-10-07T08:57:42.167Z,31.40
2022-10-07T09:00:11.679Z,32.20
2022-10-07T09:02:44.742Z,32.50
2022-10-07T09:05:14.461Z,32.60
2022-10-07T09:07:48.210Z,32.90
2022-10-07T09:10:21.378Z,33.20
2022-10-07T09:12:51.038Z,33.20
2022-10-07T09:15:20.391Z,33.00
2022-10-07T09:17:53.966Z,32.70
2022-10-07T09:20:21.752Z,32.50
2022-10-07T09:22:52.331Z,32.20
2022-10-07T09:25:21.373Z,32.20
2022-10-07T09:27:50.404Z,32.30
2022-10-07T09:30:17.548Z,32.40
2022-10-07T09:32:45.504Z,32.40
2022-10-07T09:35:17.669Z,32.40
2022-10-07T09:37:58.009Z,32.40
2022-10-07T09:40:27.467Z,32.40
2022-10-07T09:42:54.527Z,32.40
2022-10-07T09:45:27.103Z,32.30
2022-10-07T09:47:55.966Z,32.80
2022-10-07T09:50:30.725Z,33.10
2022-10-07T09:52:57.392Z,33.00
2022-10-07T09:55:32.388Z,33.00
2022-10-07T09:58:00.428Z,32.60
2022-10-07T10:00:29.367Z,31.60
2022-10-07T10:03:04.171Z,31.20
2022-10-07T10:05:33.987Z,31.20
2022-10-07T10:08:04.630Z,31.30
2022-10-07T10:10:32.588Z,31.10
2022-10-07T10:13:00.708Z,30.50
2022-10-07T10:15:41.700Z,30.20
2022-10-07T10:18:25.920Z,29.70
2022-10-07T10:20:52.790Z,29.40
2022-10-07T10:23:24.504Z,29.40
2022-10-07T10:26:31.043Z,30.00
2022-10-07T10:29:00.449Z,30.20
2022-10-07T10:31:33.259Z,29.90
2022-10-07T10:34:05.390Z,29.60
2022-10-07T10:36:35.889Z,29.80
2022-10-07T10:39:04.398Z,29.80
2022-10-07T10:41:50.674Z,30.00
2022-10-07T10:44:22.617Z,30.00
2022-10-07T10:46:56.296Z,30.20
2022-10-07T10:49:26.057Z,30.00
2022-10-07T10:52:13.636Z,29.90
2022-10-07T10:54:40.573Z,29.50
2022-10-07T10:57:17.386Z,29.20
2022-10-07T10:59:59.858Z,29.00
2022-10-07T11:02:35.922Z,28.70
2022-10-07T11:05:13.912Z,28.80
2022-10-07T11:07:44.235Z,29.10
2022-10-07T11:10:19.222Z,28.90
2022-10-07T11:12:48.215Z,28.50
2022-10-07T11:15:18.795Z,28.30
2022-10-07T11:17:46.587Z,28.30
2022-10-07T11:20:32.043Z,28.60
2022-10-07T11:23:02.428Z,28.50
2022-10-07T11:25:43.509Z,28.50
2022-10-07T11:28:21.778Z,28.40
2022-10-07T11:31:02.298Z,28.10
2022-10-07T11:33:35.999Z,28.40
2022-10-07T11:36:07.922Z,27.80
2022-10-07T11:38:36.505Z,27.40
2022-10-07T11:41:06.633Z,27.10
2022-10-07T11:43:40.890Z,26.90
2022-10-07T11:46:11.692Z,27.30
2022-10-07T11:48:46.715Z,27.80
2022-10-07T11:51:22.446Z,28.30
2022-10-07T11:53:51.871Z,28.50
2022-10-07T11:56:21.575Z,28.40
2022-10-07T11:58:56.078Z,28.20
2022-10-07T12:01:25.857Z,28.00
2022-10-07T12:04:00.224Z,27.90
2022-10-07T12:06:27.374Z,27.60
2022-10-07T12:08:55.153Z,27.40
2022-10-07T12:11:22.673Z,27.30
2022-10-07T12:13:50.723Z,27.40
2022-10-07T12:16:23.523Z,27.30
2022-10-07T12:19:02.794Z,27.10
2022-10-07T12:21:29.534Z,27.20
2022-10-07T12:24:09.798Z,27.70
2022-10-07T12:26:41.412Z,28.20
2022-10-07T12:29:18.259Z,28.10
2022-10-07T12:31:46.731Z,28.00
2022-10-07T12:34:21.071Z,27.90
2022-10-07T12:36:47.782Z,27.40
2022-10-07T12:39:14.680Z,26.80
2022-10-07T12:41:46.440Z,26.40
2022-10-07T12:44:22.918Z,25.60
2022-10-07T12:46:57.247Z,24.30
2022-10-07T12:49:43.001Z,23.20
2022-10-07T12:52:19.921Z,23.00
2022-10-07T12:54:53.699Z,23.50
2022-10-07T12:57:23.199Z,24.10
2022-10-07T12:59:58.898Z,24.80
2022-10-07T13:02:33.083Z,25.30
2022-10-07T13:05:18.289Z,25.90
2022-10-07T13:07:46.226Z,26.30
2022-10-07T13:10:26.901Z,26.90
2022-10-07T13:13:02.799Z,27.30
2022-10-07T13:15:49.920Z,27.20
2022-10-07T13:18:19.244Z,26.80
2022-10-07T13:21:07.900Z,26.30
2022-10-07T13:23:34.667Z,26.60
2022-10-07T13:26:03.311Z,26.90
2022-10-07T13:28:36.548Z,26.80
2022-10-07T13:31:17.859Z,26.70
2022-10-07T13:33:44.727Z,26.70
2022-10-07T13:36:14.190Z,26.70
2022-10-07T13:38:40.853Z,26.90
2022-10-07T13:41:22.655Z,27.20
2022-10-07T13:43:54.161Z,27.30
2022-10-07T13:46:23.821Z,27.30
2022-10-07T13:48:51.084Z,26.90
2022-10-07T13:51:33.512Z,26.60
2022-10-07T13:54:01.524Z,26.40
2022-10-07T13:56:33.616Z,26.20
2022-10-07T13:59:01.288Z,26.10
2022-10-07T14:01:29.350Z,26.00
2022-10-07T14:04:10.178Z,26.00
2022-10-07T14:06:56.171Z,25.90
2022-10-07T14:09:26.350Z,25.70
2022-10-07T14:11:58.019Z,25.50
2022-10-07T14:14:32.553Z,25.50
2022-10-07T14:16:59.643Z,25.50
2022-10-07T14:19:32.742Z,25.70
2022-10-07T14:22:01.458Z,26.00
2022-10-07T14:24:28.294Z,26.20
2022-10-07T14:26:55.244Z,26.50
2022-10-07T14:29:42.156Z,26.80
2022-10-07T14:32:27.704Z,27.00
2022-10-07T14:35:12.777Z,26.90
2022-10-07T14:37:39.465Z,26.70
2022-10-07T14:40:15.989Z,26.50
2022-10-07T14:42:43.588Z,26.40
2022-10-07T14:45:15.020Z,26.10
2022-10-07T14:47:44.215Z,25.80
2022-10-07T14:50:12.399Z,25.10
2022-10-07T14:52:47.355Z,24.50
2022-10-07T14:55:18.404Z,23.80
2022-10-07T14:57:47.204Z,23.20
2022-10-07T15:00:14.329Z,22.60
2022-10-07T15:02:40.991Z,22.10
2022-10-07T15:05:07.911Z,21.60
2022-10-07T15:07:34.643Z,21.30
2022-10-07T15:10:01.374Z,21.10
2022-10-07T15:12:28.995Z,21.00
2022-10-07T15:14:55.807Z,20.80
2022-10-07T15:17:22.731Z,20.80
2022-10-07T15:19:51.333Z,20.80
2022-10-07T15:22:19.104Z,20.70
2022-10-07T15:24:45.849Z,20.50
2022-10-07T15:27:12.537Z,20.40
2022-10-07T15:29:39.318Z,20.40
2022-10-07T15:32:07.516Z,20.60
2022-10-07T15:34:34.207Z,20.60
2022-10-07T15:37:00.901Z,20.90
2022-10-07T15:39:27.501Z,21.10
2022-10-07T15:41:54.487Z,21.40
2022-10-07T15:44:22.360Z,21.60
2022-10-07T15:46:52.475Z,21.60
2022-10-07T15:49:19.184Z,21.60
2022-10-07T15:51:48.862Z,21.50
2022-10-07T15:54:15.749Z,21.30
2022-10-07T15:56:43.013Z,21.20
2022-10-07T15:59:09.822Z,21.10
2022-10-07T16:01:36.890Z,20.80
2022-10-07T16:04:04.041Z,20.50
2022-10-07T16:06:32.588Z,20.20
2022-10-07T16:08:59.683Z,19.90
2022-10-07T16:11:27.317Z,19.50
2022-10-07T16:13:54.506Z,19.00
2022-10-07T16:16:25.125Z,18.60
2022-10-07T16:18:52.757Z,18.20
2022-10-07T16:21:21.545Z,17.90
2022-10-07T16:23:49.190Z,17.60
2022-10-07T16:26:16.857Z,17.30
2022-10-07T16:29:03.698Z,17.00
2022-10-07T16:31:31.389Z,16.80
2022-10-07T16:33:58.531Z,16.50
2022-10-07T16:36:25.979Z,16.30
2022-10-07T16:38:53.278Z,16.10
2022-10-07T16:41:20.742Z,16.00
2022-10-07T16:43:47.616Z,15.80
2022-10-07T16:46:15.586Z,15.70
2022-10-07T16:48:43.772Z,15.50
2022-10-07T16:51:11.029Z,15.40
2022-10-07T16:53:38.857Z,15.30
2022-10-07T16:56:06.042Z,15.20
2022-10-07T16:58:34.293Z,15.20
2022-10-07T17:01:02.419Z,15.00
2022-10-07T17:03:30.454Z,14.90
2022-10-07T17:05:58.004Z,14.90
2022-10-07T17:08:24.873Z,14.90
2022-10-07T17:10:51.574Z,14.80
2022-10-07T17:13:18.404Z,14.80
2022-10-07T17:15:48.052Z,14.80
2022-10-07T17:18:18.618Z,14.80
2022-10-07T17:20:48.835Z,14.70
2022-10-07T17:23:15.562Z,14.70
2022-10-07T17:25:45.706Z,14.60
2022-10-07T17:28:13.268Z,14.60
2022-10-07T17:30:40.680Z,14.60
2022-10-07T17:33:07.774Z,14.50
2022-10-07T17:35:34.629Z,14.50
2022-10-07T17:38:02.196Z,14.40
2022-10-07T17:40:29.477Z,14.40
2022-10-07T17:42:56.206Z,14.30
2022-10-07T17:45:22.830Z,14.20
2022-10-07T17:47:49.521Z,14.20
2022-10-07T17:50:17.291Z,14.10
2022-10-07T17:52:43.948Z,14.10
2022-10-07T17:55:10.582Z,13.90
2022-10-07T17:57:38.985Z,13.80
2022-10-07T18:00:07.281Z,13.60
2022-10-07T18:02:39.851Z,13.40
2022-10-07T18:05:07.031Z,13.30
2022-10-07T18:07:33.765Z,13.10
2022-10-07T18:10:00.709Z,13.10
2022-10-07T18:12:46.260Z,13.00
2022-10-07T18:15:22.322Z,12.90
2022-10-07T18:17:54.038Z,12.90
2022-10-07T18:20:21.874Z,12.80
2022-10-07T18:22:53.718Z,12.90
2022-10-07T18:25:20.375Z,12.80
2022-10-07T18:27:47.227Z,12.80
2022-10-07T18:30:14.206Z,12.80
2022-10-07T18:32:40.855Z,12.70
2022-10-07T18:35:07.695Z,12.70
2022-10-07T18:37:34.405Z,12.70
2022-10-07T18:40:01.204Z,12.70
2022-10-07T18:42:27.833Z,12.60
2022-10-07T18:44:54.980Z,12.60
2022-10-07T18:47:21.769Z,12.60
2022-10-07T18:49:48.559Z,12.60
2022-10-07T18:52:15.371Z,12.50
2022-10-07T18:54:42.044Z,12.50
2022-10-07T18:57:08.678Z,12.50
2022-10-07T18:59:35.359Z,12.50
2022-10-07T19:02:02.146Z,12.50
2022-10-07T19:04:29.278Z,12.40
2022-10-07T19:06:55.921Z,12.40
2022-10-07T19:09:22.678Z,12.40
2022-10-07T19:11:49.750Z,12.40
2022-10-07T19:14:16.734Z,12.40
2022-10-07T19:16:48.983Z,12.50
2022-10-07T19:19:17.430Z,12.50
2022-10-07T19:21:46.249Z,12.50
2022-10-07T19:24:13.570Z,12.50
2022-10-07T19:26:43.286Z,12.50
2022-10-07T19:29:10.812Z,12.60
2022-10-07T19:31:40.434Z,12.60
2022-10-07T19:34:09.097Z,12.60
2022-10-07T19:36:37.127Z,12.60
2022-10-07T19:39:05.680Z,12.60
2022-10-07T19:41:33.604Z,12.60
2022-10-07T19:44:00.610Z,12.60
2022-10-07T19:46:28.957Z,12.50
2022-10-07T19:48:56.893Z,12.50
2022-10-07T19:51:23.957Z,12.50
2022-10-07T19:53:51.410Z,12.50
2022-10-07T19:56:20.503Z,12.50
2022-10-07T19:58:50.271Z,12.50
2022-10-07T20:01:18.138Z,12.50
2022-10-07T20:03:45.363Z,12.50
2022-10-07T20:06:13.007Z,12.40
2022-10-07T20:08:44.397Z,12.40
2022-10-07T20:11:11.995Z,12.30
2022-10-07T20:13:39.381Z,12.30
2022-10-07T20:16:16.822Z,12.20
2022-10-07T20:18:44.034Z,12.20
2022-10-07T20:21:13.125Z,12.20
2022-10-07T20:23:40.594Z,12.20
2022-10-07T20:26:11.360Z,12.10
2022-10-07T20:28:38.296Z,12.10
2022-10-07T20:31:05.741Z,12.10
2022-10-07T20:33:46.307Z,12.10
2022-10-07T20:36:14.282Z,12.00
2022-10-07T20:38:59.616Z,12.10
2022-10-07T20:41:45.698Z,12.00
2022-10-07T20:44:13.115Z,12.00
2022-10-07T20:46:39.967Z,12.00
2022-10-07T20:49:22.965Z,12.00
2022-10-07T20:51:53.944Z,12.00
2022-10-07T20:54:21.516Z,12.00
2022-10-07T20:56:49.067Z,12.00
2022-10-07T20:59:15.767Z,12.00
2022-10-07T21:01:42.737Z,12.00
2022-10-07T21:04:11.255Z,12.00
2022-10-07T21:06:38.659Z,12.10
2022-10-07T21:09:05.598Z,12.10
2022-10-07T21:11:32.551Z,12.10
2022-10-07T21:13:59.354Z,12.20
2022-10-07T21:16:26.881Z,12.30
2022-10-07T21:18:53.877Z,12.30
2022-10-07T21:21:20.936Z,12.40
2022-10-07T21:23:47.818Z,12.50
2022-10-07T21:26:14.546Z,12.60
2022-10-07T21:28:41.562Z,12.70
2022-10-07T21:31:09.838Z,12.80
2022-10-07T21:33:38.455Z,12.90
2022-10-07T21:36:12.889Z,12.90
2022-10-07T21:38:39.581Z,13.00
2022-10-07T21:41:13.664Z,13.10
2022-10-07T21:43:41.302Z,13.20
2022-10-07T21:46:08.907Z,13.20
2022-10-07T21:48:36.070Z,13.30
2022-10-07T21:51:08.570Z,13.30
2022-10-07T21:53:36.687Z,13.30
2022-10-07T21:56:04.831Z,13.30
2022-10-07T21:58:32.854Z,13.20
2022-10-07T22:01:07.398Z,13.20
2022-10-07T22:03:34.831Z,13.20
2022-10-07T22:06:02.311Z,13.20
2022-10-07T22:08:35.022Z,13.20
2022-10-07T22:11:01.753Z,13.20
2022-10-07T22:13:29.534Z,13.20
2022-10-07T22:15:56.347Z,13.20
2022-10-07T22:18:23.033Z,13.20
2022-10-07T22:20:49.758Z,13.10
2022-10-07T22:23:17.611Z,13.10
2022-10-07T22:25:44.447Z,13.10
2022-10-07T22:28:11.524Z,13.00
2022-10-07T22:30:39.732Z,12.90
2022-10-07T22:33:06.711Z,12.90
2022-10-07T22:35:35.140Z,12.90
2022-10-07T22:38:01.796Z,12.80
2022-10-07T22:40:28.943Z,12.70
2022-10-07T22:42:55.595Z,12.60
2022-10-07T22:45:22.368Z,12.50
2022-10-07T22:47:49.692Z,12.50
2022-10-07T22:50:16.700Z,12.40
2022-10-07T22:52:43.462Z,12.40
2022-10-07T22:55:10.239Z,12.40
2022-10-07T22:57:36.981Z,12.30
2022-10-07T23:00:05.119Z,12.30
2022-10-07T23:02:31.894Z,12.20
2022-10-07T23:05:01.376Z,12.20
2022-10-07T23:07:28.860Z,12.20
2022-10-07T23:09:55.554Z,12.10
2022-10-07T23:12:22.192Z,12.10
2022-10-07T23:14:49.048Z,12.00
2022-10-07T23:17:15.683Z,12.00
2022-10-07T23:19:42.512Z,12.00
2022-10-07T23:22:09.655Z,12.00
2022-10-07T23:24:36.537Z,12.00
2022-10-07T23:27:03.488Z,12.00
2022-10-07T23:29:30.466Z,12.00
2022-10-07T23:31:57.279Z,12.00
2022-10-07T23:34:24.319Z,12.00
2022-10-07T23:36:52.911Z,12.00
2022-10-07T23:39:19.898Z,11.90
2022-10-07T23:41:46.641Z,11.90
2022-10-07T23:44:13.342Z,11.90
2022-10-07T23:46:40.023Z,11.90
2022-10-07T23:49:06.826Z,11.90
2022-10-07T23:51:33.513Z,12.00
2022-10-07T23:54:00.940Z,12.00
2022-10-07T23:56:27.793Z,12.00
2022-10-07T23:58:54.596Z,12.00
